Time,TemperatureF,DewpointF,PressureIn,WindDirection,WindDirectionDegrees,WindSpeedMPH,WindSpeedGustMPH,Humidity,HourlyPrecipIn,Conditions,Clouds,dailyrainin,SoftwareType,DateUTC
2013-07-15 00:01:00,54.0,51.0,-100.00,North,0,0.0,1.0,88,0.00,,,0.00,,2013-07-15 08:01:00,
2013-07-15 00:11:00,54.0,51.0,-100.00,North,0,0.0,1.0,88,0.00,,,0.00,,2013-07-15 08:11:00,
2013-07-15 00:32:00,53.0,51.0,-100.00,NNE,25,0.0,0.0,92,0.00,,,0.00,,2013-07-15 08:32:00,
2013-07-15 00:43:00,53.0,51.0,-100.00,NNE,25,0.0,0.0,92,0.00,,,0.00,,2013-07-15 08:43:00,
2013-07-15 00:53:00,53.0,50.0,-100.00,NNE,30,0.0,1.0,92,0.00,,,0.00,,2013-07-15 08:53:00,
2013-07-15 01:01:00,53.0,50.0,-100.00,NNE,30,0.0,1.0,92,0.00,,,0.00,,2013-07-15 09:01:00,
2013-07-15 01:11:00,53.0,50.0,-100.00,NNE,30,0.0,1.0,92,0.00,,,0.00,,2013-07-15 09:11:00,
2013-07-15 01:32:00,51.0,50.0,-100.00,North,355,0.0,1.0,94,0.00,,,0.00,,2013-07-15 09:32:00,
2013-07-15 01:42:00,51.0,50.0,-100.00,North,355,0.0,1.0,94,0.00,,,0.00,,2013-07-15 09:42:00,
2013-07-15 01:52:00,51.0,49.0,-100.00,South,170,0.0,1.0,95,0.00,,,0.00,,2013-07-15 09:52:00,
2013-07-15 02:02:00,51.0,49.0,-100.00,South,170,0.0,1.0,95,0.00,,,0.00,,2013-07-15 10:02:00,
2013-07-15 02:11:00,51.0,49.0,-100.00,South,170,0.0,1.0,95,0.00,,,0.00,,2013-07-15 10:11:00,
2013-07-15 02:32:00,50.0,49.0,-100.00,NW,310,0.0,0.0,95,0.00,,,0.00,,2013-07-15 10:32:00,
2013-07-15 02:42:00,50.0,49.0,-100.00,NW,310,0.0,0.0,95,0.00,,,0.00,,2013-07-15 10:42:00,
2013-07-15 02:52:00,49.0,48.0,-100.00,North,355,0.0,1.0,96,0.00,,,0.00,,2013-07-15 10:52:00,
2013-07-15 03:01:00,49.0,48.0,-100.00,North,355,0.0,1.0,96,0.00,,,0.00,,2013-07-15 11:01:00,
2013-07-15 03:11:00,49.0,48.0,-100.00,North,355,0.0,1.0,96,0.00,,,0.00,,2013-07-15 11:11:00,
2013-07-15 03:32:00,49.0,48.0,-100.00,SSW,200,0.0,0.0,96,0.00,,,0.00,,2013-07-15 11:32:00,
2013-07-15 03:42:00,49.0,48.0,-100.00,SSW,200,0.0,0.0,96,0.00,,,0.00,,2013-07-15 11:42:00,
2013-07-15 03:52:00,48.0,47.0,-100.00,NE,55,0.0,0.0,97,0.00,,,0.00,,2013-07-15 11:52:00,
2013-07-15 04:01:00,48.0,47.0,-100.00,NE,55,0.0,0.0,97,0.00,,,0.00,,2013-07-15 12:01:00,
2013-07-15 04:11:00,48.0,47.0,-100.00,NE,55,0.0,0.0,97,0.00,,,0.00,,2013-07-15 12:11:00,
2013-07-15 04:32:00,48.0,47.0,-100.00,ENE,60,0.0,0.0,97,0.00,,,0.00,,2013-07-15 12:32:00,
2013-07-15 04:42:00,48.0,47.0,-100.00,ENE,60,0.0,0.0,97,0.00,,,0.00,,2013-07-15 12:42:00,
2013-07-15 04:52:00,47.0,46.0,-100.00,ENE,60,0.0,0.0,97,0.00,,,0.00,,2013-07-15 12:52:00,
2013-07-15 05:01:00,47.0,46.0,-100.00,ENE,60,0.0,0.0,97,0.00,,,0.00,,2013-07-15 13:01:00,
2013-07-15 05:11:00,47.0,46.0,-100.00,ENE,60,0.0,0.0,97,0.00,,,0.00,,2013-07-15 13:11:00,
2013-07-15 05:33:00,47.0,46.0,-100.00,ENE,65,0.0,0.0,97,0.00,,,0.00,,2013-07-15 13:33:00,
2013-07-15 05:43:00,47.0,46.0,-100.00,ENE,65,0.0,0.0,97,0.00,,,0.00,,2013-07-15 13:43:00,
2013-07-15 05:53:00,47.0,46.0,-100.00,NNW,345,0.0,0.0,97,0.00,,,0.00,,2013-07-15 13:53:00,
2013-07-15 06:02:00,47.0,46.0,-100.00,NNW,345,0.0,0.0,97,0.00,,,0.00,,2013-07-15 14:02:00,
2013-07-15 06:11:00,47.0,46.0,-100.00,NNW,345,0.0,0.0,97,0.00,,,0.00,,2013-07-15 14:11:00,
2013-07-15 06:22:00,47.0,46.0,-100.00,NE,40,0.0,0.0,97,0.00,,,0.00,,2013-07-15 14:22:00,
2013-07-15 06:33:00,47.0,46.0,-100.00,NE,40,0.0,0.0,97,0.00,,,0.00,,2013-07-15 14:33:00,
2013-07-15 06:42:00,47.0,46.0,-100.00,NE,40,0.0,0.0,97,0.00,,,0.00,,2013-07-15 14:42:00,
2013-07-15 06:54:00,47.0,47.0,-100.00,NE,40,0.0,0.0,97,0.00,,,0.00,,2013-07-15 14:54:00,
2013-07-15 07:03:00,47.0,47.0,-100.00,NE,40,0.0,0.0,97,0.00,,,0.00,,2013-07-15 15:03:00,
2013-07-15 07:14:00,47.0,47.0,-100.00,NE,40,0.0,0.0,97,0.00,,,0.00,,2013-07-15 15:14:00,
2013-07-15 07:45:00,48.0,47.0,-100.00,SW,220,0.0,1.0,97,0.00,,,0.00,,2013-07-15 15:45:00,
2013-07-15 07:53:00,50.0,49.0,-100.00,SW,220,0.0,1.0,97,0.00,,,0.00,,2013-07-15 15:53:00,
2013-07-15 08:04:00,50.0,49.0,-100.00,SW,220,0.0,1.0,97,0.00,,,0.00,,2013-07-15 16:04:00,
2013-07-15 08:14:00,50.0,49.0,-100.00,SW,220,0.0,1.0,97,0.00,,,0.00,,2013-07-15 16:14:00,
2013-07-15 08:32:00,52.0,51.0,-100.00,SW,220,1.0,2.0,96,0.00,,,0.00,,2013-07-15 16:32:00,
2013-07-15 08:44:00,52.0,51.0,-100.00,SW,220,1.0,2.0,96,0.00,,,0.00,,2013-07-15 16:44:00,
2013-07-15 08:52:00,57.0,50.0,-100.00,WSW,240,1.0,2.0,77,0.00,,,0.00,,2013-07-15 16:52:00,
2013-07-15 09:02:00,57.0,50.0,-100.00,WSW,240,1.0,2.0,77,0.00,,,0.00,,2013-07-15 17:02:00,
2013-07-15 09:13:00,57.0,50.0,-100.00,WSW,240,1.0,2.0,77,0.00,,,0.00,,2013-07-15 17:13:00,
2013-07-15 09:35:00,58.0,49.0,-100.00,SW,220,0.0,1.0,70,0.00,,,0.00,,2013-07-15 17:35:00,
2013-07-15 09:45:00,58.0,49.0,-100.00,SW,220,0.0,1.0,70,0.00,,,0.00,,2013-07-15 17:45:00,
2013-07-15 10:03:00,63.0,47.0,-100.00,South,180,1.0,2.0,57,0.00,,,0.00,,2013-07-15 18:03:00,
2013-07-15 10:13:00,63.0,47.0,-100.00,South,180,1.0,2.0,57,0.00,,,0.00,,2013-07-15 18:13:00,
2013-07-15 10:34:00,65.0,47.0,-100.00,SE,145,1.0,2.0,52,0.00,,,0.00,,2013-07-15 18:34:00,
2013-07-15 10:45:00,65.0,47.0,-100.00,SE,145,1.0,2.0,52,0.00,,,0.00,,2013-07-15 18:45:00,
2013-07-15 10:53:00,66.0,47.0,-100.00,SSE,155,0.0,2.0,51,0.00,,,0.00,,2013-07-15 18:53:00,
2013-07-15 11:04:00,66.0,47.0,-100.00,SSE,155,0.0,2.0,51,0.00,,,0.00,,2013-07-15 19:04:00,
2013-07-15 11:11:00,66.0,47.0,-100.00,SSE,155,0.0,2.0,51,0.00,,,0.00,,2013-07-15 19:11:00,
2013-07-15 11:34:00,65.0,47.0,-100.00,South,180,1.0,1.0,51,0.00,,,0.00,,2013-07-15 19:34:00,
2013-07-15 11:44:00,65.0,47.0,-100.00,South,180,1.0,1.0,51,0.00,,,0.00,,2013-07-15 19:44:00,
2013-07-15 11:54:00,66.0,48.0,-100.00,SE,130,1.0,3.0,52,0.00,,,0.00,,2013-07-15 19:54:00,
2013-07-15 12:04:00,66.0,48.0,-100.00,SE,130,1.0,3.0,52,0.00,,,0.00,,2013-07-15 20:04:00,
2013-07-15 12:13:00,66.0,48.0,-100.00,SE,130,1.0,3.0,52,0.00,,,0.00,,2013-07-15 20:13:00,
2013-07-15 12:43:00,68.0,48.0,-100.00,South,180,1.0,2.0,50,0.00,,,0.00,,2013-07-15 20:43:00,
2013-07-15 12:53:00,68.0,49.0,-100.00,SSE,160,1.0,3.0,50,0.00,,,0.00,,2013-07-15 20:53:00,
2013-07-15 13:02:00,68.0,49.0,-100.00,SSE,160,1.0,3.0,50,0.00,,,0.00,,2013-07-15 21:02:00,
2013-07-15 13:12:00,68.0,49.0,-100.00,SSE,160,1.0,3.0,50,0.00,,,0.00,,2013-07-15 21:12:00,
2013-07-15 13:35:00,67.0,49.0,-100.00,SSW,195,2.0,7.0,51,0.00,,,0.00,,2013-07-15 21:35:00,
2013-07-15 13:53:00,68.0,49.0,-100.00,SSE,150,1.0,4.0,50,0.00,,,0.00,,2013-07-15 21:53:00,
2013-07-15 14:02:00,68.0,49.0,-100.00,SSE,150,1.0,4.0,50,0.00,,,0.00,,2013-07-15 22:02:00,
2013-07-15 14:14:00,68.0,49.0,-100.00,SSE,150,1.0,4.0,50,0.00,,,0.00,,2013-07-15 22:14:00,
2013-07-15 14:20:00,68.0,49.0,-100.00,SSE,150,2.0,9.0,50,0.00,,,0.00,,2013-07-15 22:20:00,
2013-07-15 14:22:00,69.0,49.0,-100.00,ESE,120,2.0,7.0,50,0.00,,,0.00,,2013-07-15 22:22:00,
2013-07-15 14:34:00,69.0,49.0,-100.00,ESE,120,2.0,7.0,50,0.00,,,0.00,,2013-07-15 22:34:00,
2013-07-15 15:03:00,68.0,49.0,-100.00,SSE,150,2.0,9.0,50,0.00,,,0.00,,2013-07-15 23:03:00,
2013-07-15 15:13:00,68.0,49.0,-100.00,SSE,150,2.0,9.0,50,0.00,,,0.00,,2013-07-15 23:13:00,
2013-07-15 15:53:00,69.0,49.0,-100.00,East,95,6.0,14.0,50,0.00,,,0.00,,2013-07-15 23:53:00,
2013-07-15 16:03:00,69.0,49.0,-100.00,East,95,6.0,14.0,50,0.00,,,0.00,,2013-07-16 00:03:00,
2013-07-15 16:12:00,69.0,49.0,-100.00,East,95,6.0,14.0,50,0.00,,,0.00,,2013-07-16 00:12:00,
2013-07-15 16:33:00,69.0,49.0,-100.00,SE,140,3.0,12.0,50,0.00,,,0.00,,2013-07-16 00:33:00,
2013-07-15 16:44:00,69.0,49.0,-100.00,SE,140,3.0,12.0,50,0.00,,,0.00,,2013-07-16 00:44:00,
2013-07-15 16:52:00,68.0,48.0,-100.00,ESE,120,8.0,19.0,49,0.00,,,0.00,,2013-07-16 00:52:00,
2013-07-15 17:04:00,68.0,48.0,-100.00,ESE,120,8.0,19.0,49,0.00,,,0.00,,2013-07-16 01:04:00,
2013-07-15 17:12:00,68.0,48.0,-100.00,ESE,120,8.0,19.0,49,0.00,,,0.00,,2013-07-16 01:12:00,
2013-07-15 17:45:00,69.0,48.0,-100.00,SE,130,7.0,15.0,48,0.00,,,0.00,,2013-07-16 01:45:00,
2013-07-15 17:54:00,68.0,48.0,-100.00,ESE,120,4.0,17.0,49,0.00,,,0.00,,2013-07-16 01:54:00,
2013-07-15 18:02:00,68.0,48.0,-100.00,ESE,120,4.0,17.0,49,0.00,,,0.00,,2013-07-16 02:02:00,
2013-07-15 18:11:00,68.0,48.0,-100.00,ESE,120,4.0,17.0,49,0.00,,,0.00,,2013-07-16 02:11:00,
2013-07-15 18:35:00,68.0,48.0,-100.00,SE,135,7.0,14.0,49,0.00,,,0.00,,2013-07-16 02:35:00,
2013-07-15 18:45:00,68.0,48.0,-100.00,SE,135,7.0,14.0,49,0.00,,,0.00,,2013-07-16 02:45:00,
2013-07-15 18:54:00,69.0,48.0,-100.00,ESE,115,1.0,10.0,48,0.00,,,0.00,,2013-07-16 02:54:00,
2013-07-15 19:04:00,69.0,48.0,-100.00,ESE,115,1.0,10.0,48,0.00,,,0.00,,2013-07-16 03:04:00,
2013-07-15 19:13:00,69.0,48.0,-100.00,ESE,115,1.0,10.0,48,0.00,,,0.00,,2013-07-16 03:13:00,
2013-07-15 19:35:00,68.0,49.0,-100.00,SSE,155,4.0,8.0,51,0.00,,,0.00,,2013-07-16 03:35:00,
2013-07-15 19:45:00,68.0,49.0,-100.00,SSE,155,4.0,8.0,51,0.00,,,0.00,,2013-07-16 03:45:00,
2013-07-15 19:54:00,68.0,49.0,-100.00,East,90,1.0,6.0,51,0.00,,,0.00,,2013-07-16 03:54:00,
2013-07-15 20:01:00,68.0,49.0,-100.00,East,90,1.0,6.0,51,0.00,,,0.00,,2013-07-16 04:01:00,
2013-07-15 20:12:00,68.0,49.0,-100.00,East,90,1.0,6.0,51,0.00,,,0.00,,2013-07-16 04:12:00,
2013-07-15 20:43:00,66.0,48.0,-100.00,ESE,110,3.0,7.0,52,0.00,,,0.00,,2013-07-16 04:43:00,
2013-07-15 21:01:00,65.0,48.0,-100.00,SE,135,2.0,6.0,54,0.00,,,0.00,,2013-07-16 05:01:00,
2013-07-15 21:11:00,65.0,48.0,-100.00,SE,135,2.0,6.0,54,0.00,,,0.00,,2013-07-16 05:11:00,
2013-07-15 21:20:00,61.0,49.0,-100.00,SE,125,0.0,2.0,66,0.00,,,0.00,,2013-07-16 05:20:00,
2013-07-15 21:32:00,63.0,48.0,-100.00,SE,140,2.0,4.0,58,0.00,,,0.00,,2013-07-16 05:32:00,
2013-07-15 21:43:00,63.0,48.0,-100.00,SE,140,2.0,4.0,58,0.00,,,0.00,,2013-07-16 05:43:00,
2013-07-15 21:52:00,61.0,49.0,-100.00,SE,125,0.0,2.0,66,0.00,,,0.00,,2013-07-16 05:52:00,
2013-07-15 22:01:00,61.0,49.0,-100.00,SE,125,0.0,2.0,66,0.00,,,0.00,,2013-07-16 06:01:00,
2013-07-15 22:11:00,61.0,49.0,-100.00,SE,125,0.0,2.0,66,0.00,,,0.00,,2013-07-16 06:11:00,
2013-07-15 22:31:00,59.0,51.0,-100.00,NNW,335,0.0,0.0,77,0.00,,,0.00,,2013-07-16 06:31:00,
2013-07-15 22:43:00,59.0,51.0,-100.00,NNW,335,0.0,0.0,77,0.00,,,0.00,,2013-07-16 06:43:00,
2013-07-15 22:52:00,57.0,53.0,-100.00,North,0,0.0,1.0,86,0.00,,,0.00,,2013-07-16 06:52:00,
2013-07-15 23:01:00,57.0,53.0,-100.00,North,0,0.0,1.0,86,0.00,,,0.00,,2013-07-16 07:01:00,
2013-07-15 23:11:00,57.0,53.0,-100.00,North,0,0.0,1.0,86,0.00,,,0.00,,2013-07-16 07:11:00,
2013-07-15 23:32:00,55.0,53.0,-100.00,North,0,1.0,1.0,90,0.00,,,0.00,,2013-07-16 07:32:00,
2013-07-15 23:43:00,55.0,53.0,-100.00,North,0,1.0,1.0,90,0.00,,,0.00,,2013-07-16 07:43:00,
2013-07-15 23:52:00,54.0,52.0,-100.00,NNE,20,1.0,1.0,92,0.00,,,0.00,,2013-07-16 07:52:00,